Time;durP1;ratioP1;P1;durP2;ratioP2;P2;SDS_P1;SDS_P2;PMS_P1;PMS_P2;Temp;Humidity;BMP_temperature;BMP_pressure;BME280_temperature;BME280_humidity;BME280_pressure;Samples;Min_cycle;Max_cycle;Signal;HPM_P1;HPM_P2
2022/08/30 00:03:13;;;;;;;8.63;6.38;;;16.50;58.10;;;;;;5063569;28;20088;-90
2022/08/30 00:06:01;;;;;;;10.68;7.00;;;16.50;70.40;;;;;;5046036;28;20059;-90
2022/08/30 00:09:02;;;;;;;9.63;7.18;;;16.60;74.70;;;;;;5046043;28;20070;-90
2022/08/30 00:15:41;;;;;;;12.23;7.18;;;16.50;77.30;;;;;;4974003;28;20459;-90
2022/08/30 00:18:51;;;;;;;10.45;6.53;;;16.50;86.70;;;;;;4894812;29;20056;-89
2022/08/30 00:21:40;;;;;;;11.07;7.03;;;16.50;89.60;;;;;;4912047;29;20128;-89
2022/08/30 00:24:28;;;;;;;13.00;7.40;;;16.40;93.10;;;;;;4918432;28;20306;-90
2022/08/30 00:27:20;;;;;;;11.00;6.97;;;16.30;98.00;;;;;;4988851;28;20117;-90
2022/08/30 00:30:17;;;;;;;9.00;6.90;;;16.30;99.90;;;;;;4967492;28;20173;-90
2022/08/30 00:33:07;;;;;;;12.75;7.57;;;16.30;99.90;;;;;;4962064;28;20389;-90
2022/08/30 00:36:01;;;;;;;12.23;7.57;;;16.20;99.90;;;;;;4972654;28;20054;-90
2022/08/30 00:38:49;;;;;;;11.98;7.13;;;16.10;99.90;;;;;;4976061;28;20072;-90
2022/08/30 00:42:02;;;;;;;12.02;7.25;;;15.90;99.90;;;;;;4980106;28;20661;-91
2022/08/30 00:44:54;;;;;;;15.57;8.32;;;15.80;99.90;;;;;;5046096;28;20096;-89
2022/08/30 00:47:41;;;;;;;10.60;7.32;;;15.70;99.90;;;;;;5055493;28;20052;-90
2022/08/30 00:51:00;;;;;;;10.80;7.82;;;15.70;99.90;;;;;;5061943;28;20049;-88
2022/08/30 00:54:00;;;;;;;9.40;7.63;;;15.70;99.90;;;;;;5047207;28;20518;-90
2022/08/30 00:56:48;;;;;;;12.52;7.93;;;15.60;99.90;;;;;;5046102;28;20073;-90
2022/08/30 00:59:35;;;;;;;13.70;8.02;;;15.50;99.90;;;;;;5046609;28;20080;-90
2022/08/30 01:02:24;;;;;;;16.25;8.23;;;15.50;99.90;;;;;;5055815;28;20116;-89
2022/08/30 01:05:16;;;;;;;10.35;7.85;;;15.60;99.90;;;;;;5057857;28;20047;-90
2022/08/30 01:08:14;;;;;;;11.25;7.65;;;15.60;99.90;;;;;;5054966;28;20360;-90
2022/08/30 01:11:38;;;;;;;13.50;7.88;;;15.50;99.90;;;;;;5053486;28;20048;-90
2022/08/30 01:14:34;;;;;;;10.02;7.72;;;15.30;99.90;;;;;;5042623;28;20077;-90
2022/08/30 01:17:28;;;;;;;11.07;8.00;;;15.30;99.90;;;;;;5039691;28;20056;-90
2022/08/30 01:20:48;;;;;;;10.73;8.43;;;15.20;99.90;;;;;;5027494;28;20048;-90
2022/08/30 01:23:47;;;;;;;12.48;9.18;;;15.20;99.90;;;;;;4948424;28;20138;-91
2022/08/30 01:26:35;;;;;;;11.02;8.00;;;15.10;99.90;;;;;;5038425;28;20072;-91
2022/08/30 01:29:24;;;;;;;13.13;9.07;;;15.00;99.90;;;;;;5039853;28;20053;-92
2022/08/30 01:32:20;;;;;;;11.38;8.88;;;15.00;99.90;;;;;;5052389;28;20045;-90
2022/08/30 01:35:21;;;;;;;12.88;7.75;;;15.10;99.90;;;;;;5055835;28;20086;-90
2022/08/30 01:38:09;;;;;;;12.57;8.65;;;15.20;99.90;;;;;;5049541;28;20172;-90
2022/08/30 01:40:59;;;;;;;12.38;9.27;;;15.20;99.90;;;;;;5056630;28;20131;-90
2022/08/30 01:43:49;;;;;;;12.88;9.13;;;15.10;99.90;;;;;;5053692;28;20077;-90
2022/08/30 01:46:41;;;;;;;11.15;8.80;;;15.00;99.90;;;;;;5053140;28;20124;-90
2022/08/30 01:49:31;;;;;;;15.35;10.13;;;14.90;99.90;;;;;;5028525;28;20522;-89
2022/08/30 01:52:21;;;;;;;16.55;9.88;;;14.90;99.90;;;;;;5051309;28;20041;-90
2022/08/30 01:55:09;;;;;;;15.25;9.98;;;14.80;99.90;;;;;;5045946;28;20052;-90
2022/08/30 01:58:12;;;;;;;16.38;10.35;;;14.70;99.90;;;;;;5055160;28;20049;-90
2022/08/30 02:01:20;;;;;;;16.30;10.55;;;14.60;99.90;;;;;;5042867;28;20041;-89
2022/08/30 02:04:10;;;;;;;14.75;9.90;;;14.50;99.90;;;;;;5035709;28;20041;-91
2022/08/30 02:06:57;;;;;;;14.73;10.85;;;14.50;99.90;;;;;;5043944;28;20468;-90
2022/08/30 02:09:45;;;;;;;18.88;10.40;;;14.40;99.90;;;;;;5042716;28;20134;-90
2022/08/30 02:12:33;;;;;;;17.80;10.65;;;14.40;1.00;;;;;;5047887;28;20064;-90
2022/08/30 02:15:23;;;;;;;12.70;9.35;;;14.40;1.00;;;;;;5032432;28;20563;-90
2022/08/30 02:18:24;;;;;;;15.55;11.45;;;14.50;1.00;;;;;;5040473;28;20053;-88
2022/08/30 02:21:26;;;;;;;18.90;10.70;;;14.50;1.00;;;;;;5069332;28;20067;-89
2022/08/30 02:24:13;;;;;;;19.02;10.63;;;14.60;1.00;;;;;;5060647;28;20044;-90
2022/08/30 02:27:01;;;;;;;14.75;10.13;;;14.50;1.00;;;;;;5057837;28;20052;-89
2022/08/30 02:29:53;;;;;;;14.45;9.68;;;14.40;1.00;;;;;;5066430;28;20052;-90
2022/08/30 02:32:40;;;;;;;14.85;10.07;;;14.30;1.00;;;;;;5063591;28;20056;-89
2022/08/30 02:35:28;;;;;;;15.98;10.38;;;14.30;1.00;;;;;;5041398;28;20544;-90
2022/08/30 02:38:18;;;;;;;16.65;10.70;;;14.20;1.00;;;;;;5056592;28;20455;-90
2022/08/30 02:41:06;;;;;;;16.98;11.15;;;14.10;1.00;;;;;;5037240;28;20048;-91
2022/08/30 02:44:00;;;;;;;15.27;11.43;;;14.10;1.00;;;;;;5064412;28;20370;-85
2022/08/30 02:46:47;;;;;;;16.33;10.75;;;14.10;1.00;;;;;;5055579;28;20076;-90
2022/08/30 02:49:36;;;;;;;16.23;11.35;;;14.00;1.00;;;;;;5056268;28;20049;-90
2022/08/30 02:52:29;;;;;;;17.95;11.20;;;14.10;1.00;;;;;;5050617;28;20052;-90
2022/08/30 02:55:17;;;;;;;15.52;10.80;;;14.20;1.00;;;;;;5057633;28;20103;-90
2022/08/30 02:58:05;;;;;;;14.75;11.70;;;14.10;1.00;;;;;;5041326;28;20073;-89
2022/08/30 03:01:00;;;;;;;17.15;10.88;;;14.10;1.00;;;;;;5055085;28;20103;-91
2022/08/30 03:03:48;;;;;;;16.42;11.52;;;14.10;1.00;;;;;;5054963;28;20045;-90
2022/08/30 03:06:41;;;;;;;17.00;11.85;;;14.10;19.20;;;;;;5055243;28;20474;-90
2022/08/30 03:09:35;;;;;;;14.70;10.80;;;14.20;16.30;;;;;;5047536;28;20152;-90
2022/08/30 03:12:25;;;;;;;18.63;11.60;;;14.30;1.00;;;;;;5049969;28;20131;-91
2022/08/30 03:15:13;;;;;;;16.83;11.55;;;14.30;1.00;;;;;;5068976;28;20066;-90
2022/08/30 03:18:09;;;;;;;17.30;11.30;;;14.20;1.00;;;;;;5051026;28;20071;-89
2022/08/30 03:21:11;;;;;;;14.90;11.25;;;14.10;1.00;;;;;;5054713;28;20073;-90
2022/08/30 03:23:58;;;;;;;15.32;11.35;;;14.00;1.00;;;;;;5052140;28;20144;-90
2022/08/30 03:26:48;;;;;;;16.27;10.90;;;13.90;1.00;;;;;;5037577;28;20055;-90
2022/08/30 03:29:35;;;;;;;16.13;11.65;;;13.80;1.00;;;;;;5057792;28;20099;-91
2022/08/30 03:32:29;;;;;;;18.27;12.27;;;13.80;23.40;;;;;;5055438;28;20459;-88
2022/08/30 03:35:18;;;;;;;17.27;12.77;;;13.70;80.20;;;;;;5049177;28;20183;-90
2022/08/30 03:38:25;;;;;;;25.27;13.15;;;13.70;99.90;;;;;;5054068;28;20048;-89
2022/08/30 03:41:27;;;;;;;19.15;12.93;;;13.60;99.90;;;;;;5052160;28;20096;-90
2022/08/30 03:44:16;;;;;;;16.95;12.80;;;13.60;99.90;;;;;;5054588;28;20053;-89
2022/08/30 03:47:04;;;;;;;20.92;13.43;;;13.50;99.90;;;;;;5055298;28;20045;-89
2022/08/30 03:49:55;;;;;;;19.02;13.80;;;13.50;99.90;;;;;;5064733;28;20061;-90
2022/08/30 03:52:55;;;;;;;21.65;13.77;;;13.50;99.90;;;;;;5049190;28;20115;-90
2022/08/30 03:55:44;;;;;;;20.60;13.45;;;13.40;99.90;;;;;;5042264;28;20167;-90
2022/08/30 03:58:33;;;;;;;19.15;13.88;;;13.40;99.90;;;;;;5054405;28;20459;-91
2022/08/30 04:01:23;;;;;;;23.20;14.50;;;13.40;99.90;;;;;;5045742;28;20149;-90
2022/08/30 04:04:10;;;;;;;18.80;14.70;;;13.40;1.00;;;;;;5051106;28;20101;-90
2022/08/30 04:06:58;;;;;;;21.55;15.23;;;13.50;1.00;;;;;;5063139;28;20495;-89
2022/08/30 04:09:54;;;;;;;17.75;14.25;;;13.60;1.00;;;;;;5050744;28;20041;-89
2022/08/30 04:13:25;;;;;;;16.00;13.30;;;13.60;1.00;;;;;;5060397;28;20490;-90
2022/08/30 04:16:22;;;;;;;15.77;13.30;;;13.60;1.00;;;;;;5049897;28;20049;-89
2022/08/30 04:19:42;;;;;;;18.00;13.02;;;13.50;99.90;;;;;;5054948;28;20041;-89
2022/08/30 04:22:30;;;;;;;20.50;13.70;;;13.40;99.90;;;;;;5058002;28;20040;-89
2022/08/30 04:25:17;;;;;;;17.27;13.80;;;13.30;99.90;;;;;;5047467;28;20045;-90
2022/08/30 04:28:08;;;;;;;19.65;14.05;;;13.30;99.90;;;;;;5053087;28;20049;-90
2022/08/30 04:30:55;;;;;;;19.70;13.85;;;13.30;1.00;;;;;;5052895;28;20053;-90
2022/08/30 04:33:43;;;;;;;25.42;15.80;;;13.20;1.00;;;;;;5053797;28;20143;-89
2022/08/30 04:36:30;;;;;;;22.38;15.38;;;13.20;1.00;;;;;;5054710;28;20044;-92
2022/08/30 04:39:18;;;;;;;19.98;15.30;;;13.30;1.00;;;;;;5057920;28;20356;-88
2022/08/30 04:42:05;;;;;;;18.88;15.35;;;13.40;1.00;;;;;;5051214;28;20045;-87
2022/08/30 04:44:52;;;;;;;22.00;15.00;;;13.40;1.00;;;;;;5055051;28;20053;-88
2022/08/30 04:47:40;;;;;;;20.40;14.80;;;13.50;1.00;;;;;;5057800;28;20049;-88
2022/08/30 04:50:30;;;;;;;21.30;14.73;;;13.40;1.00;;;;;;5043970;28;20483;-90
2022/08/30 04:53:18;;;;;;;21.88;15.13;;;13.40;1.00;;;;;;5063153;28;20045;-91
2022/08/30 04:56:16;;;;;;;22.60;15.70;;;13.50;1.00;;;;;;5039801;28;20457;-90
2022/08/30 04:59:04;;;;;;;17.75;14.63;;;13.50;1.00;;;;;;5062321;28;20072;-88
2022/08/30 05:01:51;;;;;;;20.55;14.52;;;13.60;1.00;;;;;;5057386;28;20456;-89
2022/08/30 05:05:38;;;;;;;19.73;14.43;;;13.60;1.00;;;;;;5051421;28;20137;-86
2022/08/30 05:07:45;;;;;;;24.38;14.25;;;13.60;1.00;;;;;;5037855;28;20041;-90
2022/08/30 05:10:33;;;;;;;22.80;15.23;;;13.60;1.00;;;;;;5039321;28;20525;-87
2022/08/30 05:13:20;;;;;;;18.55;13.68;;;13.70;1.00;;;;;;5036128;28;20195;-90
2022/08/30 05:16:21;;;;;;;20.27;14.63;;;13.70;1.00;;;;;;5050798;28;20060;-90
2022/08/30 05:19:08;;;;;;;17.00;13.13;;;13.90;1.00;;;;;;5051347;28;20053;-90
2022/08/30 05:21:56;;;;;;;19.08;13.32;;;14.10;1.00;;;;;;5046562;28;20053;-91
2022/08/30 05:24:43;;;;;;;21.98;13.48;;;14.40;99.90;;;;;;5050994;28;20068;-89
2022/08/30 05:27:33;;;;;;;21.30;13.15;;;14.50;99.90;;;;;;5037614;28;20102;-90
2022/08/30 05:30:25;;;;;;;19.25;13.13;;;14.60;99.90;;;;;;5051084;28;20420;-89
2022/08/30 05:33:12;;;;;;;24.77;13.65;;;14.60;20.50;;;;;;5038095;28;20064;-92
2022/08/30 05:35:59;;;;;;;19.95;13.38;;;14.50;1.00;;;;;;5048993;28;20220;-91
2022/08/30 05:38:49;;;;;;;18.58;13.15;;;14.60;1.00;;;;;;5036844;28;20062;-80
2022/08/30 05:41:38;;;;;;;19.15;12.98;;;14.60;1.00;;;;;;5049244;28;20484;-84
2022/08/30 05:44:25;;;;;;;18.80;12.73;;;14.70;1.00;;;;;;5045250;28;20138;-84
2022/08/30 05:47:12;;;;;;;22.70;12.90;;;14.70;1.00;;;;;;5050350;28;20247;-84
2022/08/30 05:50:05;;;;;;;20.23;12.38;;;14.70;1.00;;;;;;5047629;28;20055;-84
2022/08/30 05:52:53;;;;;;;19.48;13.48;;;14.70;1.00;;;;;;5050951;28;20080;-82
2022/08/30 05:55:44;;;;;;;24.20;13.60;;;14.80;1.00;;;;;;5051352;28;20375;-82
2022/08/30 05:58:34;;;;;;;20.77;13.17;;;14.90;1.00;;;;;;5044266;28;20071;-84
2022/08/30 06:01:30;;;;;;;18.00;13.85;;;15.00;1.00;;;;;;5044424;28;20069;-83
2022/08/30 06:04:17;;;;;;;19.02;12.63;;;15.20;1.00;;;;;;5047117;28;20145;-85
2022/08/30 06:07:05;;;;;;;23.63;12.60;;;15.50;1.00;;;;;;5049271;28;20361;-81
2022/08/30 06:09:52;;;;;;;23.73;12.05;;;15.80;99.90;;;;;;5052952;28;20042;-84
2022/08/30 06:12:42;;;;;;;18.67;11.40;;;16.10;99.90;;;;;;5050640;28;20053;-83
2022/08/30 06:15:46;;;;;;;15.60;11.40;;;16.30;99.90;;;;;;5045685;28;20100;-83
2022/08/30 06:18:46;;;;;;;15.30;11.05;;;16.40;99.90;;;;;;5062194;28;20045;-88
2022/08/30 06:21:35;;;;;;;14.20;9.57;;;16.60;99.90;;;;;;5042156;28;20092;-87
2022/08/30 06:24:26;;;;;;;14.30;9.93;;;16.70;99.90;;;;;;5060615;28;20037;-89
2022/08/30 06:27:36;;;;;;;15.52;9.27;;;16.90;99.90;;;;;;5055232;28;20356;-90
2022/08/30 06:31:29;;;;;;;16.13;10.25;;;17.00;99.90;;;;;;5036984;28;20367;-90
2022/08/30 06:38:45;;;;;;;12.13;9.40;;;17.30;99.90;;;;;;4958286;28;20034;-90
2022/08/30 06:43:00;;;;;;;;;;;;;;;;;;;;;
2022/08/30 06:54:28;;;;;;;12.82;8.65;;;18.30;99.90;;;;;;4879753;29;20033;-90
2022/08/30 07:01:45;;;;;;;15.18;7.88;;;19.10;99.90;;;;;;4900425;29;20056;-91
2022/08/30 07:05:23;;;;;;;;;;;;;;;;;;;;;
2022/08/30 07:08:31;;;;;;;13.93;8.32;;;19.80;84.00;;;;;;5047125;28;20379;-90
2022/08/30 07:11:32;;;;;;;14.23;8.85;;;20.20;56.00;;;;;;5039400;28;20045;-90
2022/08/30 07:14:21;;;;;;;12.23;8.43;;;20.40;41.50;;;;;;5047285;28;20445;-88
2022/08/30 07:20:20;;;;;;;13.48;8.23;;;20.90;16.50;;;;;;5043856;28;20196;-92
2022/08/30 07:23:11;;;;;;;12.00;7.40;;;21.20;10.80;;;;;;5046538;28;20052;-90
2022/08/30 07:26:13;;;;;;;9.85;7.20;;;21.40;1.00;;;;;;5040630;28;20113;-89
2022/08/30 07:29:16;;;;;;;10.55;7.47;;;21.70;1.00;;;;;;5059873;28;20052;-92
2022/08/30 07:32:09;;;;;;;13.10;7.40;;;21.60;1.00;;;;;;5047710;28;20048;-93
2022/08/30 07:35:01;;;;;;;10.93;7.13;;;21.50;1.00;;;;;;5045546;28;20033;-92
2022/08/30 07:37:58;;;;;;;8.30;6.50;;;21.50;1.00;;;;;;5057253;28;20141;-92
2022/08/30 07:41:00;;;;;;;10.05;7.68;;;21.60;1.00;;;;;;5041858;28;20071;-90
2022/08/30 07:43:50;;;;;;;10.02;6.93;;;21.40;1.00;;;;;;5036354;28;20122;-89
2022/08/30 07:51:28;;;;;;;12.60;7.43;;;21.30;1.00;;;;;;4999496;28;20032;-92
2022/08/30 07:59:24;;;;;;;8.75;6.47;;;21.40;1.00;;;;;;4972681;28;20026;-93
2022/08/30 08:06:02;;;;;;;12.00;7.30;;;21.90;1.00;;;;;;4970117;28;20167;-92
2022/08/30 08:08:50;;;;;;;9.70;6.10;;;22.00;1.00;;;;;;4991048;28;20041;-90
2022/08/30 08:12:20;;;;;;;;;;;;;;;;;;;;;
2022/08/30 08:15:57;;;;;;;10.18;7.28;;;22.60;1.00;;;;;;4966952;28;20059;-93
2022/08/30 08:23:34;;;;;;;8.45;6.57;;;24.80;1.00;;;;;;4871705;29;20185;-92
2022/08/30 08:27:34;;;;;;;;;;;;;;;;;;;;;
2022/08/30 08:31:16;;;;;;;11.82;6.53;;;24.80;1.00;;;;;;4870584;29;20373;-93
2022/08/30 08:35:26;;;;;;;8.90;6.03;;;26.10;1.00;;;;;;4879278;29;20136;-92
2022/08/30 08:46:17;;;;;;;10.00;5.88;;;26.60;1.00;;;;;;4862910;29;20408;-91
2022/08/30 08:58:35;;;;;;;;;;;;;;;;;;;;;
2022/08/30 09:01:37;;;;;;;8.30;5.63;;;26.40;1.00;;;;;;4843141;29;20042;-88
2022/08/30 09:04:42;;;;;;;8.63;5.68;;;27.70;1.00;;;;;;4904280;29;20056;-91
2022/08/30 09:08:14;;;;;;;6.65;4.65;;;28.40;1.00;;;;;;5043897;28;20044;-92
2022/08/30 09:24:25;;;;;;;4.72;3.70;;;31.30;1.00;;;;;;4984558;28;20037;-91
2022/08/30 09:36:28;;;;;;;8.27;4.10;;;31.90;1.00;;;;;;4851049;29;20022;-90
2022/08/30 09:39:38;;;;;;;6.82;4.47;;;31.70;1.00;;;;;;4888779;29;20367;-92
2022/08/30 09:42:28;;;;;;;6.85;4.10;;;31.40;1.00;;;;;;4930596;29;20040;-93
2022/08/30 09:46:04;;;;;;;6.22;4.32;;;32.20;1.00;;;;;;4943071;28;20062;-91
2022/08/30 09:49:40;;;;;;;4.70;4.20;;;32.60;1.00;;;;;;4980666;28;20070;-90
2022/08/30 09:52:54;;;;;;;12.07;3.78;;;32.90;1.00;;;;;;4973611;28;20051;-90
2022/08/30 09:56:09;;;;;;;5.03;3.70;;;33.20;1.00;;;;;;4995482;28;20060;-91
2022/08/30 10:03:26;;;;;;;7.53;3.40;;;32.80;1.00;;;;;;5018341;28;20045;-92
2022/08/30 10:15:19;;;;;;;5.28;4.10;;;32.80;1.00;;;;;;4966162;28;20047;-90
2022/08/30 10:18:28;;;;;;;;;;;;;;;;;;;;;
2022/08/30 10:22:05;;;;;;;3.78;3.40;;;34.10;1.00;;;;;;5051541;28;20120;-90
2022/08/30 10:24:57;;;;;;;4.50;3.50;;;34.20;1.00;;;;;;5044304;28;20041;-88
2022/08/30 10:31:35;;;;;;;4.60;3.53;;;34.20;1.00;;;;;;5060522;28;20125;-87
2022/08/30 10:34:54;;;;;;;6.38;3.30;;;35.20;1.00;;;;;;5048483;28;20053;-88
2022/08/30 10:38:15;;;;;;;5.43;3.45;;;34.90;1.00;;;;;;5037618;28;20045;-93
2022/08/30 10:41:35;;;;;;;3.97;3.42;;;35.10;1.00;;;;;;5042269;28;20056;-92
2022/08/30 10:45:01;;;;;;;6.63;3.17;;;34.80;1.00;;;;;;5041100;28;20041;-92
2022/08/30 10:48:21;;;;;;;6.90;3.83;;;34.30;1.00;;;;;;5032219;28;20049;-91
2022/08/30 10:51:42;;;;;;;5.30;3.63;;;33.70;1.00;;;;;;5058414;28;20052;-89
2022/08/30 10:54:51;;;;;;;4.68;3.10;;;33.80;1.00;;;;;;5040170;28;20044;-91
2022/08/30 10:58:05;;;;;;;5.63;3.10;;;34.80;1.00;;;;;;5052064;28;20530;-89
2022/08/30 11:01:18;;;;;;;4.00;3.22;;;34.80;1.00;;;;;;5056062;28;20041;-89
2022/08/30 11:04:35;;;;;;;6.13;3.30;;;35.10;1.00;;;;;;5042935;28;20129;-91
2022/08/30 11:07:47;;;;;;;;;;;;;;;;;;;;;
2022/08/30 11:11:04;;;;;;;;;;;;;;;;;;;;;
2022/08/30 11:22:17;;;;;;;3.60;3.17;;;35.20;1.00;;;;;;4990382;28;20058;-87
2022/08/30 11:25:34;;;;;;;4.22;2.85;;;35.60;1.00;;;;;;4985450;28;20039;-90
2022/08/30 11:28:42;;;;;;;4.70;3.38;;;35.60;1.00;;;;;;4982156;28;20074;-90
2022/08/30 11:32:21;;;;;;;;;;;;;;;;;;;;;
2022/08/30 11:36:44;;;;;;;;;;;;;;;;;;;;;
2022/08/30 11:39:48;;;;;;;7.60;3.75;;;34.80;1.00;;;;;;4920620;29;20055;-87
2022/08/30 11:42:46;;;;;;;4.97;3.35;;;33.70;1.00;;;;;;4990801;28;20077;-89
2022/08/30 11:45:47;;;;;;;5.32;3.00;;;33.00;1.00;;;;;;4972911;28;20046;-92
2022/08/30 11:49:49;;;;;;;;;;;;;;;;;;;;;
2022/08/30 11:57:15;;;;;;;4.63;3.35;;;33.20;1.00;;;;;;5046383;28;20046;-91
2022/08/30 12:00:44;;;;;;;6.05;4.15;;;33.20;1.00;;;;;;5025763;28;20044;-88
2022/08/30 12:03:41;;;;;;;4.82;3.60;;;32.80;1.00;;;;;;5063938;28;20052;-87
2022/08/30 12:06:52;;;;;;;4.40;3.00;;;32.40;1.00;;;;;;5046131;28;20110;-89
2022/08/30 12:09:39;;;;;;;4.45;3.47;;;33.50;1.00;;;;;;5040145;28;20264;-91
2022/08/30 12:12:36;;;;;;;4.80;4.00;;;33.50;1.00;;;;;;5055881;28;20060;-91
2022/08/30 12:15:46;;;;;;;5.72;3.63;;;33.50;1.00;;;;;;5033136;28;20042;-89
2022/08/30 12:19:06;;;;;;;;;;;;;;;;;;;;;
2022/08/30 12:23:47;;;;;;;4.43;3.33;;;33.40;1.00;;;;;;5054039;28;20345;-91
2022/08/30 12:26:39;;;;;;;7.05;3.75;;;33.10;1.00;;;;;;4954327;28;20039;-92
2022/08/30 12:30:05;;;;;;;;;;;;;;;;;;;;;
2022/08/30 12:33:25;;;;;;;8.02;3.75;;;32.30;1.00;;;;;;4915285;29;20048;-87
2022/08/30 12:37:06;;;;;;;6.20;3.72;;;31.90;1.00;;;;;;4929755;28;20058;-90
2022/08/30 12:40:30;;;;;;;;;;;;;;;;;;;;;
2022/08/30 12:44:01;;;;;;;6.93;3.60;;;31.50;1.00;;;;;;4911111;29;20059;-91
2022/08/30 12:47:04;;;;;;;4.82;4.00;;;31.00;1.00;;;;;;4925795;28;20129;-93
2022/08/30 12:49:56;;;;;;;8.18;3.72;;;30.50;1.00;;;;;;4961468;28;20071;-88
2022/08/30 12:53:36;;;;;;;6.00;3.45;;;30.40;1.00;;;;;;4971862;28;20560;-92
2022/08/30 12:57:01;;;;;;;6.00;3.60;;;30.80;1.00;;;;;;4962362;28;20562;-91
2022/08/30 13:00:32;;;;;;;6.07;3.30;;;31.50;1.00;;;;;;4990108;28;20041;-89
2022/08/30 13:03:36;;;;;;;3.20;2.90;;;33.20;1.00;;;;;;5034698;28;20065;-88
2022/08/30 13:06:53;;;;;;;4.35;3.20;;;34.10;1.00;;;;;;5013398;28;20063;-88
2022/08/30 13:09:43;;;;;;;7.55;3.30;;;34.00;99.90;;;;;;5020704;28;20041;-89
2022/08/30 13:12:34;;;;;;;4.13;2.90;;;33.70;99.90;;;;;;5029722;28;20049;-87
2022/08/30 13:15:31;;;;;;;3.47;3.00;;;34.60;99.90;;;;;;5019195;28;20080;-90
2022/08/30 13:18:31;;;;;;;3.38;2.92;;;34.10;99.90;;;;;;5018418;28;20127;-91
2022/08/30 13:21:31;;;;;;;4.97;3.53;;;34.30;99.90;;;;;;5018089;28;20046;-90
2022/08/30 13:24:22;;;;;;;4.43;3.17;;;34.10;99.90;;;;;;5015411;28;20056;-89
2022/08/30 13:27:48;;;;;;;5.60;3.30;;;33.50;99.90;;;;;;5017167;28;20113;-95
2022/08/30 13:30:39;;;;;;;3.80;3.08;;;33.60;99.90;;;;;;5026204;28;20045;-89
2022/08/30 13:33:26;;;;;;;3.75;3.30;;;33.30;99.90;;;;;;5015469;28;20042;-86
2022/08/30 13:36:17;;;;;;;5.10;3.85;;;32.00;99.90;;;;;;5020947;28;20456;-85
2022/08/30 13:39:09;;;;;;;6.03;4.20;;;30.90;1.00;;;;;;5020290;28;20037;-89
2022/08/30 13:41:56;;;;;;;5.63;3.60;;;30.50;1.00;;;;;;5032373;28;20041;-90
2022/08/30 13:45:04;;;;;;;5.82;3.30;;;30.20;1.00;;;;;;5021457;28;20123;-89
2022/08/30 13:48:13;;;;;;;6.90;3.65;;;30.80;1.00;;;;;;5024471;28;20120;-88
2022/08/30 13:51:03;;;;;;;4.28;3.50;;;31.80;1.00;;;;;;5014229;28;20528;-86
2022/08/30 13:53:52;;;;;;;3.70;3.33;;;32.00;99.90;;;;;;5018693;28;20116;-90
2022/08/30 13:56:42;;;;;;;4.90;3.30;;;31.70;1.00;;;;;;5035398;28;20049;-90
2022/08/30 13:59:32;;;;;;;4.28;3.55;;;31.70;1.00;;;;;;5020440;28;20237;-92
2022/08/30 14:02:21;;;;;;;5.05;3.60;;;32.20;99.90;;;;;;5026836;28;20413;-91
2022/08/30 14:05:11;;;;;;;5.45;3.15;;;32.40;99.90;;;;;;5038014;28;20053;-92
2022/08/30 14:08:22;;;;;;;3.95;2.90;;;32.30;99.90;;;;;;5017333;28;20037;-91
2022/08/30 14:11:30;;;;;;;5.38;3.53;;;31.70;99.90;;;;;;5031300;28;20103;-89
2022/08/30 14:14:23;;;;;;;4.78;3.38;;;30.90;1.00;;;;;;5043783;28;20053;-88
2022/08/30 14:17:31;;;;;;;5.45;3.60;;;30.40;1.00;;;;;;5040313;28;20057;-90
2022/08/30 14:20:22;;;;;;;5.55;3.60;;;29.70;1.00;;;;;;5038150;28;20048;-93
2022/08/30 14:23:09;;;;;;;4.15;3.22;;;30.20;1.00;;;;;;5039714;28;20092;-92
2022/08/30 14:26:04;;;;;;;4.85;3.30;;;31.00;1.00;;;;;;5021821;28;20449;-91
2022/08/30 14:28:59;;;;;;;3.92;3.08;;;32.50;99.90;;;;;;5027593;28;20082;-93
2022/08/30 14:32:09;;;;;;;3.67;3.28;;;33.90;99.90;;;;;;5034259;28;20135;-89
2022/08/30 14:35:54;;;;;;;;;;;;;;;;;;;;;
2022/08/30 14:38:56;;;;;;;5.80;2.90;;;35.20;99.90;;;;;;4974323;28;20062;-89
2022/08/30 14:41:47;;;;;;;5.80;3.15;;;35.20;99.90;;;;;;4972209;28;20050;-90
2022/08/30 14:44:40;;;;;;;5.47;3.60;;;35.00;99.90;;;;;;4973201;28;20111;-92
2022/08/30 14:47:52;;;;;;;5.35;3.58;;;34.20;99.90;;;;;;4951313;28;20533;-90
2022/08/30 14:51:21;;;;;;;5.47;3.13;;;34.30;99.90;;;;;;4965215;28;20062;-92
2022/08/30 14:54:37;;;;;;;5.25;3.22;;;34.80;99.90;;;;;;4957005;28;20046;-92
2022/08/30 14:57:30;;;;;;;4.78;2.97;;;34.50;99.90;;;;;;4977198;28;20043;-88
2022/08/30 15:00:21;;;;;;;2.95;2.50;;;35.00;99.90;;;;;;4969344;28;20225;-87
2022/08/30 15:03:14;;;;;;;4.07;3.08;;;35.80;99.90;;;;;;4979560;28;20061;-87
2022/08/30 15:06:06;;;;;;;5.15;3.45;;;35.80;99.90;;;;;;4964876;28;20038;-90
2022/08/30 15:08:57;;;;;;;3.30;3.00;;;35.00;99.90;;;;;;4996315;28;20045;-90
2022/08/30 15:11:44;;;;;;;3.95;3.20;;;33.80;99.90;;;;;;5022410;28;20056;-87
2022/08/30 15:14:33;;;;;;;5.35;3.40;;;33.20;99.90;;;;;;5042742;28;20049;-86
2022/08/30 15:17:23;;;;;;;4.10;3.40;;;33.20;99.90;;;;;;5027664;28;20365;-88
2022/08/30 15:20:17;;;;;;;4.68;3.08;;;33.40;99.90;;;;;;5023178;28;20041;-87
2022/08/30 15:23:08;;;;;;;3.92;3.53;;;32.90;99.90;;;;;;5035913;28;20034;-86
2022/08/30 15:25:56;;;;;;;3.95;3.30;;;33.00;99.90;;;;;;5034521;28;20037;-89
2022/08/30 15:28:44;;;;;;;4.93;3.22;;;33.10;99.90;;;;;;5040857;28;20065;-87
2022/08/30 15:31:34;;;;;;;5.88;3.30;;;32.40;99.90;;;;;;5035594;28;20045;-91
2022/08/30 15:34:24;;;;;;;4.45;3.95;;;31.60;99.90;;;;;;5036239;28;20076;-91
2022/08/30 15:37:21;;;;;;;8.50;3.47;;;31.70;99.90;;;;;;5025029;28;20063;-91
2022/08/30 15:40:20;;;;;;;6.53;3.33;;;31.80;99.90;;;;;;5039592;28;20049;-89
2022/08/30 15:43:21;;;;;;;9.70;3.88;;;32.10;99.90;;;;;;5042565;28;20182;-89
2022/08/30 15:46:30;;;;;;;3.60;3.28;;;30.60;99.90;;;;;;5021636;28;20049;-89
2022/08/30 15:49:23;;;;;;;4.55;4.00;;;29.30;99.90;;;;;;5036597;28;20103;-92
2022/08/30 15:52:10;;;;;;;6.63;3.65;;;28.70;99.90;;;;;;5022398;28;20538;-91
2022/08/30 15:54:59;;;;;;;5.40;4.00;;;28.10;99.90;;;;;;5026498;28;20452;-91
2022/08/30 15:57:49;;;;;;;6.65;4.00;;;27.60;1.00;;;;;;5040835;28;20484;-91
2022/08/30 16:00:39;;;;;;;4.70;3.63;;;27.10;1.00;;;;;;5028608;28;20124;-94
2022/08/30 16:03:35;;;;;;;5.85;4.38;;;26.80;1.00;;;;;;5039145;28;20037;-89
2022/08/30 16:06:29;;;;;;;5.07;3.53;;;26.70;1.00;;;;;;5009233;28;20046;-92
2022/08/30 16:09:20;;;;;;;4.75;3.85;;;26.70;1.00;;;;;;5009452;28;20056;-93
2022/08/30 16:12:10;;;;;;;5.53;4.60;;;26.70;1.00;;;;;;5021259;28;20164;-91
2022/08/30 16:14:59;;;;;;;6.18;4.07;;;26.50;1.00;;;;;;5033118;28;20046;-91
2022/08/30 16:17:50;;;;;;;8.18;4.20;;;26.40;1.00;;;;;;5009007;28;20041;-90
2022/08/30 16:20:39;;;;;;;5.22;3.80;;;26.50;1.00;;;;;;5029413;28;20064;-89
2022/08/30 16:23:26;;;;;;;5.32;4.30;;;26.40;1.00;;;;;;5030501;28;20045;-88
2022/08/30 16:26:19;;;;;;;5.13;4.10;;;26.40;1.00;;;;;;5033402;28;20389;-89
2022/08/30 16:29:13;;;;;;;4.53;3.83;;;26.40;1.00;;;;;;5021744;28;20132;-86
2022/08/30 16:32:04;;;;;;;5.45;3.80;;;26.40;1.00;;;;;;5010980;28;20041;-89
2022/08/30 16:34:51;;;;;;;5.30;4.20;;;26.40;1.00;;;;;;5036097;28;20460;-88
2022/08/30 16:37:41;;;;;;;4.07;3.63;;;26.20;1.00;;;;;;5031314;28;20057;-88
2022/08/30 16:40:31;;;;;;;7.38;4.10;;;26.00;1.00;;;;;;5040315;28;20344;-93
2022/08/30 16:43:21;;;;;;;8.20;4.60;;;25.90;1.00;;;;;;5036433;28;20056;-90
2022/08/30 16:46:15;;;;;;;4.60;3.80;;;25.80;1.00;;;;;;5027997;28;20185;-90
2022/08/30 16:49:04;;;;;;;5.68;4.05;;;25.70;1.00;;;;;;5028704;28;20843;-92
2022/08/30 16:51:54;;;;;;;6.55;4.28;;;25.60;1.00;;;;;;5024869;28;20057;-91
2022/08/30 16:54:44;;;;;;;4.43;3.65;;;25.60;1.00;;;;;;5023734;28;20112;-92
2022/08/30 16:57:44;;;;;;;3.83;3.42;;;25.50;1.00;;;;;;5026915;28;20208;-91
2022/08/30 17:00:33;;;;;;;8.18;4.28;;;25.40;1.00;;;;;;5022053;28;20048;-93
2022/08/30 17:03:23;;;;;;;7.13;3.65;;;25.40;1.00;;;;;;5022215;28;20050;-89
2022/08/30 17:06:10;;;;;;;6.05;4.38;;;25.30;1.00;;;;;;5015114;28;20046;-91
2022/08/30 17:09:06;;;;;;;5.10;4.18;;;25.20;1.00;;;;;;5039072;28;20036;-92
2022/08/30 17:11:53;;;;;;;6.28;4.50;;;25.10;1.00;;;;;;5021750;28;20060;-92
2022/08/30 17:14:45;;;;;;;5.38;3.88;;;25.00;1.00;;;;;;5017879;28;20136;-91
2022/08/30 17:17:33;;;;;;;4.85;3.92;;;24.90;1.00;;;;;;5017962;28;20215;-91
2022/08/30 17:20:22;;;;;;;11.77;4.28;;;24.80;1.00;;;;;;5008118;28;20049;-91
2022/08/30 17:23:11;;;;;;;6.65;4.72;;;24.70;1.00;;;;;;5017962;28;20085;-91
2022/08/30 17:26:00;;;;;;;7.20;4.40;;;24.60;1.00;;;;;;5024455;28;20038;-90
2022/08/30 17:28:49;;;;;;;8.20;3.97;;;24.50;1.00;;;;;;5022281;28;20045;-90
2022/08/30 17:31:45;;;;;;;5.32;4.05;;;24.40;1.00;;;;;;5032258;28;20131;-92
2022/08/30 17:34:53;;;;;;;6.53;4.53;;;24.30;1.00;;;;;;5013820;28;20077;-91
2022/08/30 17:37:41;;;;;;;6.88;4.45;;;24.20;1.00;;;;;;5023051;28;20116;-90
2022/08/30 17:40:29;;;;;;;8.65;4.35;;;24.10;1.00;;;;;;5020875;28;20045;-91
2022/08/30 17:43:16;;;;;;;9.88;4.47;;;24.00;1.00;;;;;;5022717;28;20556;-91
2022/08/30 17:46:04;;;;;;;5.25;4.38;;;23.90;1.00;;;;;;5026756;28;20052;-91